Time;durP1;ratioP1;P1;durP2;ratioP2;P2;SDS_P1;SDS_P2;PMS_P1;PMS_P2;Temp;Humidity;BMP_temperature;BMP_pressure;BME280_temperature;BME280_humidity;BME280_pressure;Samples;Min_cycle;Max_cycle;Signal;HPM_P1;HPM_P2
2020/01/13 00:00:47;;;;;;;50.2;38.7;;;;;;;2.43;78.34961;970.7166;;;;
2020/01/13 00:03:12;;;;;;;48.2;39.1;;;;;;;2.35;79.10547;970.7238;;;;
2020/01/13 00:05:40;;;;;;;49.9;39.2;;;;;;;2.37;78.67383;970.6785;;;;
2020/01/13 00:08:02;;;;;;;47;37.6;;;;;;;2.44;78.86914;970.6883;;;;
2020/01/13 00:10:27;;;;;;;45.5;37;;;;;;;2.51;78.24902;970.6819;;;;
2020/01/13 00:12:52;;;;;;;46.8;38;;;;;;;2.58;77.94043;970.6916;;;;
2020/01/13 00:15:18;;;;;;;45.5;36.6;;;;;;;2.57;77.96191;970.6749;;;;
2020/01/13 00:17:43;;;;;;;51.5;39.8;;;;;;;2.61;77.83008;970.7101;;;;
2020/01/13 00:20:08;;;;;;;47.7;37.8;;;;;;;2.6;77.61035;970.6592;;;;
2020/01/13 00:22:33;;;;;;;52;41.4;;;;;;;2.37;78.83301;970.6473;;;;
2020/01/13 00:24:58;;;;;;;45;36.3;;;;;;;2.46;78.83789;970.658;;;;
2020/01/13 00:29:49;;;;;;;47.6;37.5;;;;;;;2.4;78.60742;970.637;;;;
2020/01/13 00:32:13;;;;;;;44.3;35.2;;;;;;;2.48;78.48633;970.5662;;;;
2020/01/13 00:34:39;;;;;;;44.9;34.5;;;;;;;2.39;78.55078;970.5736;;;;
2020/01/13 00:37:04;;;;;;;43.2;34.2;;;;;;;2.53;78.31055;970.54;;;;
2020/01/13 00:39:29;;;;;;;43.8;34.3;;;;;;;2.51;78.57129;970.47;;;;
2020/01/13 00:41:54;;;;;;;41.7;34;;;;;;;2.45;78.57129;970.4497;;;;
2020/01/13 00:44:19;;;;;;;43.8;34.8;;;;;;;2.49;78.64844;970.4224;;;;
2020/01/13 00:46:44;;;;;;;41.8;34.1;;;;;;;2.54;78.35938;970.4467;;;;
2020/01/13 00:49:10;;;;;;;42.4;33.9;;;;;;;2.63;78.05371;970.4802;;;;
2020/01/13 00:51:35;;;;;;;40;32.5;;;;;;;2.66;78.0127;970.4175;;;;
2020/01/13 00:54:00;;;;;;;43.5;34.7;;;;;;;2.49;78.60254;970.389;;;;
2020/01/13 00:56:25;;;;;;;39.8;33;;;;;;;2.58;78.57324;970.3583;;;;
2020/01/13 00:58:50;;;;;;;43.9;35.2;;;;;;;2.61;78.56641;970.3817;;;;
2020/01/13 01:01:16;;;;;;;38.5;32.1;;;;;;;2.69;78.02832;970.3173;;;;
2020/01/13 01:03:41;;;;;;;39.5;32.9;;;;;;;2.72;78.05664;970.2784;;;;
2020/01/13 01:06:06;;;;;;;42.4;34.5;;;;;;;2.68;78.22266;970.2977;;;;
2020/01/13 01:08:31;;;;;;;42.7;34.3;;;;;;;2.7;78.34277;970.2745;;;;
2020/01/13 01:10:56;;;;;;;42.6;33.3;;;;;;;2.68;78.58105;970.2957;;;;
2020/01/13 01:13:21;;;;;;;40;31.6;;;;;;;2.69;78.81152;970.253;;;;
2020/01/13 01:15:55;;;;;;;38.6;32.7;;;;;;;2.68;79.06445;970.2467;;;;
2020/01/13 01:18:12;;;;;;;41.4;33.3;;;;;;;2.61;79.30469;970.2098;;;;
2020/01/13 01:20:37;;;;;;;37.4;31.4;;;;;;;2.58;79.64258;970.1992;;;;
2020/01/13 01:23:02;;;;;;;37.8;30.7;;;;;;;2.68;79.00684;970.1519;;;;
2020/01/13 01:25:27;;;;;;;38.9;32.3;;;;;;;2.72;79.12891;970.1696;;;;
2020/01/13 01:27:52;;;;;;;36;29.5;;;;;;;2.78;79.03516;970.1418;;;;
2020/01/13 01:30:18;;;;;;;35.8;29.9;;;;;;;2.82;78.95117;970.1658;;;;
2020/01/13 01:32:44;;;;;;;36.8;29.8;;;;;;;2.85;78.99219;970.1755;;;;
2020/01/13 01:35:34;;;;;;;35;29.6;;;;;;;2.94;78.59375;970.1501;;;;
2020/01/13 01:37:33;;;;;;;35.8;30.3;;;;;;;2.94;78.52441;970.1437;;;;
2020/01/13 01:39:59;;;;;;;35.5;28.4;;;;;;;2.93;78.7168;970.0877;;;;
2020/01/13 01:42:24;;;;;;;39.1;31.8;;;;;;;2.85;79.26855;970.1049;;;;
2020/01/13 01:44:49;;;;;;;39;31.6;;;;;;;2.69;79.93848;970.0947;;;;
2020/01/13 01:47:14;;;;;;;39.3;31.3;;;;;;;2.75;79.68555;970.1144;;;;
2020/01/13 01:49:44;;;;;;;34.3;29.2;;;;;;;2.88;79.43457;970.0976;;;;
2020/01/13 01:52:04;;;;;;;35.7;28.7;;;;;;;3.05;78.71484;970.1025;;;;
2020/01/13 01:54:30;;;;;;;37.6;31.1;;;;;;;3.08;78.91895;970.1105;;;;
2020/01/13 01:56:55;;;;;;;35.1;29;;;;;;;3.11;78.75098;970.0856;;;;
2020/01/13 01:59:20;;;;;;;35.4;28;;;;;;;3.22;78.32129;970.062;;;;
2020/01/13 02:02:04;;;;;;;37.4;30.5;;;;;;;3.15;78.47168;970.0628;;;;
2020/01/13 02:04:17;;;;;;;35.6;29.5;;;;;;;3.22;78.08105;970.0417;;;;
2020/01/13 02:06:35;;;;;;;37.3;31;;;;;;;3.2;78.60645;970.0377;;;;
2020/01/13 02:09:01;;;;;;;33.2;28.1;;;;;;;3.31;78.05273;970.0492;;;;
2020/01/13 02:13:51;;;;;;;37.9;29.7;;;;;;;3.41;78.54199;970.0184;;;;
2020/01/13 02:16:30;;;;;;;39.8;32.6;;;;;;;3.37;78.91504;970.0002;;;;
2020/01/13 02:18:41;;;;;;;38.4;32;;;;;;;3.33;79.13965;969.9939;;;;
2020/01/13 02:21:06;;;;;;;39.8;31.7;;;;;;;3.3;78.58984;970.0214;;;;
2020/01/13 02:23:31;;;;;;;39;32.1;;;;;;;3.38;78.55859;969.9936;;;;
2020/01/13 02:25:59;;;;;;;34.1;29.2;;;;;;;3.46;78.65527;969.9763;;;;
2020/01/13 02:30:48;;;;;;;36;29.8;;;;;;;3.5;78.08496;969.9945;;;;
2020/01/13 02:33:24;;;;;;;38.3;32.1;;;;;;;3.5;77.87793;969.8144;;;;
2020/01/13 02:35:34;;;;;;;36.4;30.6;;;;;;;3.32;78.80176;969.8859;;;;
2020/01/13 02:37:58;;;;;;;34;29.4;;;;;;;3.37;78.88086;969.8625;;;;
2020/01/13 02:43:08;;;;;;;35;29.5;;;;;;;3.36;78.60059;969.8695;;;;
2020/01/13 02:45:19;;;;;;;36.7;30.5;;;;;;;3.22;78.62109;969.8199;;;;
2020/01/13 02:47:39;;;;;;;33.7;28.8;;;;;;;3.19;78.75488;969.7589;;;;
2020/01/13 02:50:06;;;;;;;31.3;27.1;;;;;;;3.25;78.69629;969.6864;;;;
2020/01/13 02:52:29;;;;;;;35.2;28;;;;;;;3.33;78.48047;969.7406;;;;
2020/01/13 02:54:54;;;;;;;37;29.6;;;;;;;3.36;78.11719;969.745;;;;
2020/01/13 02:57:21;;;;;;;34.6;28.3;;;;;;;3.44;77.91211;969.7233;;;;
2020/01/13 02:59:49;;;;;;;35.5;29.3;;;;;;;3.44;77.94824;969.7039;;;;
2020/01/13 03:02:23;;;;;;;33.5;28.5;;;;;;;3.48;77.67871;969.6828;;;;
2020/01/13 03:07:00;;;;;;;33.5;28.3;;;;;;;3.57;77.10645;969.6789;;;;
2020/01/13 03:09:25;;;;;;;32;27.2;;;;;;;3.62;77.3125;969.6511;;;;
2020/01/13 03:11:50;;;;;;;30.5;25.3;;;;;;;3.69;77.10547;969.67;;;;
2020/01/13 03:14:16;;;;;;;33.6;28.1;;;;;;;3.7;77.19922;969.6819;;;;
2020/01/13 03:16:41;;;;;;;32.2;27.6;;;;;;;3.62;77.3125;969.6775;;;;
2020/01/13 03:19:06;;;;;;;33.1;27.2;;;;;;;3.67;77.13672;969.635;;;;
2020/01/13 03:21:31;;;;;;;32;26.7;;;;;;;3.68;77.2998;969.6468;;;;
2020/01/13 03:23:56;;;;;;;32.3;26.9;;;;;;;3.69;77.52051;969.6145;;;;
2020/01/13 03:26:21;;;;;;;34.7;28.3;;;;;;;3.62;77.46191;969.6116;;;;
2020/01/13 03:29:20;;;;;;;31.3;27.7;;;;;;;3.69;77.46289;969.5269;;;;
2020/01/13 03:31:15;;;;;;;32.2;26.7;;;;;;;3.74;77.10352;969.5106;;;;
2020/01/13 03:33:37;;;;;;;31.4;26.9;;;;;;;3.77;77.28027;969.4747;;;;
2020/01/13 03:36:02;;;;;;;33.4;28.2;;;;;;;3.68;77.70215;969.408;;;;
2020/01/13 03:38:51;;;;;;;33.5;28.8;;;;;;;3.61;77.95605;969.4332;;;;
2020/01/13 03:41:00;;;;;;;34.7;29.2;;;;;;;3.58;78.15723;969.4703;;;;
2020/01/13 03:43:18;;;;;;;33.5;28.5;;;;;;;3.57;78.0752;969.4456;;;;
2020/01/13 03:45:49;;;;;;;31.7;26.7;;;;;;;3.7;77.25879;969.3677;;;;
2020/01/13 03:48:29;;;;;;;33.7;27.6;;;;;;;3.75;77.2334;969.4163;;;;
2020/01/13 03:55:13;;;;;;;36.9;30.8;;;;;;;3.65;78.03223;969.3364;;;;
2020/01/13 03:57:33;;;;;;;38.2;31.1;;;;;;;3.6;78.3916;969.2653;;;;
2020/01/13 04:00:01;;;;;;;40.1;32.5;;;;;;;3.54;78.7041;969.3154;;;;
2020/01/13 04:02:28;;;;;;;38.5;30.6;;;;;;;3.41;79.42969;969.3349;;;;
2020/01/13 04:04:53;;;;;;;34.7;29.6;;;;;;;3.45;79.46094;969.2163;;;;
2020/01/13 04:07:18;;;;;;;36;30.1;;;;;;;3.45;79.36816;969.1986;;;;
2020/01/13 04:09:43;;;;;;;39.8;31.3;;;;;;;3.44;79.39941;969.1797;;;;
2020/01/13 04:12:08;;;;;;;41.8;32;;;;;;;3.4;79.69238;969.1295;;;;
2020/01/13 04:14:34;;;;;;;37.7;31;;;;;;;3.4;79.55469;969.0894;;;;
2020/01/13 04:16:59;;;;;;;36.9;30.1;;;;;;;3.31;80.09277;969.0215;;;;
2020/01/13 04:19:24;;;;;;;36.7;30.3;;;;;;;3.41;79.77539;968.9858;;;;
2020/01/13 04:21:49;;;;;;;34.3;29.6;;;;;;;3.38;79.35547;968.9955;;;;
2020/01/13 04:24:14;;;;;;;33.8;28.7;;;;;;;3.44;79.14746;969.0019;;;;
2020/01/13 04:26:39;;;;;;;34.6;27.8;;;;;;;3.46;78.61914;969.0128;;;;
2020/01/13 04:29:04;;;;;;;33;27.7;;;;;;;3.53;78.12598;969.0292;;;;
2020/01/13 04:31:29;;;;;;;31.7;27.7;;;;;;;3.45;78.06543;968.9872;;;;
2020/01/13 04:33:54;;;;;;;33.8;28.3;;;;;;;3.42;78.63672;968.9229;;;;
2020/01/13 04:36:19;;;;;;;32.7;27.1;;;;;;;3.51;77.82129;968.9584;;;;
2020/01/13 04:38:44;;;;;;;31.8;27.6;;;;;;;3.63;77.52148;968.9426;;;;
2020/01/13 04:41:09;;;;;;;32.1;27.6;;;;;;;3.65;77.55957;968.9767;;;;
2020/01/13 04:43:34;;;;;;;31.3;26;;;;;;;3.74;77.43652;968.9355;;;;
2020/01/13 04:46:00;;;;;;;29.6;24.8;;;;;;;3.8;77.23047;968.9023;;;;
2020/01/13 04:48:25;;;;;;;31.7;27.1;;;;;;;3.73;77.72461;968.9495;;;;
2020/01/13 04:50:50;;;;;;;35.3;28;;;;;;;3.72;78.66895;968.9433;;;;
2020/01/13 04:53:15;;;;;;;34.8;28.6;;;;;;;3.76;78.75684;968.902;;;;
2020/01/13 04:55:40;;;;;;;32.9;27.8;;;;;;;3.75;79.2959;968.8653;;;;
2020/01/13 04:58:23;;;;;;;38.7;29.8;;;;;;;3.76;78.69922;968.9116;;;;
2020/01/13 05:00:41;;;;;;;32.2;25.9;;;;;;;3.81;79.19336;968.9456;;;;
2020/01/13 05:02:56;;;;;;;34.1;28.5;;;;;;;3.79;79.01563;968.9364;;;;
2020/01/13 05:05:20;;;;;;;35.5;29.2;;;;;;;3.67;78.52148;968.9052;;;;
2020/01/13 05:07:45;;;;;;;30.9;26.4;;;;;;;3.73;78.15234;968.9344;;;;
2020/01/13 05:10:11;;;;;;;30.4;26.1;;;;;;;3.78;77.93066;968.8472;;;;
2020/01/13 05:12:38;;;;;;;30.8;26.3;;;;;;;3.86;77.55273;968.8376;;;;
2020/01/13 05:15:01;;;;;;;30.6;25.5;;;;;;;3.89;77.7998;968.8834;;;;
2020/01/13 05:17:26;;;;;;;32.2;27.7;;;;;;;3.81;78.84668;968.8965;;;;
2020/01/13 05:19:51;;;;;;;33.5;27.7;;;;;;;3.85;79.11914;968.8975;;;;
2020/01/13 05:22:16;;;;;;;38;29.9;;;;;;;3.77;79.66992;968.8591;;;;
2020/01/13 05:24:41;;;;;;;36;29.6;;;;;;;3.81;79.22656;968.854;;;;
2020/01/13 05:27:07;;;;;;;36.5;30.5;;;;;;;3.91;78.71484;968.8234;;;;
2020/01/13 05:29:32;;;;;;;38.1;31.4;;;;;;;3.88;79.09082;968.8106;;;;
2020/01/13 05:31:57;;;;;;;38.2;30.8;;;;;;;3.79;79.28027;968.7804;;;;
2020/01/13 05:34:22;;;;;;;34.6;28.3;;;;;;;3.87;78.39551;968.7739;;;;
2020/01/13 05:36:47;;;;;;;32;26.5;;;;;;;3.94;77.57715;968.7759;;;;
2020/01/13 05:39:12;;;;;;;35.2;28.2;;;;;;;3.96;77.62793;968.7351;;;;
2020/01/13 05:41:37;;;;;;;35.3;29.4;;;;;;;3.9;78.15918;968.7255;;;;
2020/01/13 05:44:02;;;;;;;31.8;27.5;;;;;;;3.98;77.33105;968.6644;;;;
2020/01/13 05:46:27;;;;;;;31.2;26.7;;;;;;;3.98;77.21582;968.6741;;;;
2020/01/13 05:48:53;;;;;;;30.4;26;;;;;;;4;77.11523;968.7156;;;;
2020/01/13 05:51:18;;;;;;;27.5;24.5;;;;;;;3.96;77.49023;968.6473;;;;
2020/01/13 05:53:43;;;;;;;27.5;24.2;;;;;;;3.94;77.32324;968.611;;;;
2020/01/13 05:56:08;;;;;;;29.8;24.8;;;;;;;4.03;76.86816;968.5728;;;;
2020/01/13 05:58:33;;;;;;;26.9;22.8;;;;;;;4.05;76.41113;968.5776;;;;
2020/01/13 06:00:58;;;;;;;27;23;;;;;;;3.98;76.1543;968.5977;;;;
2020/01/13 06:03:23;;;;;;;28;23.8;;;;;;;3.97;76.6123;968.5229;;;;
2020/01/13 06:05:48;;;;;;;26.4;22.6;;;;;;;3.93;75.80957;968.4939;;;;
2020/01/13 06:08:17;;;;;;;26;21.9;;;;;;;3.86;76.21484;968.4626;;;;
2020/01/13 06:10:39;;;;;;;26.8;22.1;;;;;;;3.85;76.5918;968.4553;;;;
2020/01/13 06:13:04;;;;;;;26.9;23.4;;;;;;;3.8;77.2998;968.4815;;;;
2020/01/13 06:15:29;;;;;;;26.8;22.5;;;;;;;3.72;77.05469;968.5201;;;;
2020/01/13 06:17:54;;;;;;;24.6;20.3;;;;;;;3.76;76.70313;968.428;;;;
2020/01/13 06:20:20;;;;;;;23.3;19.7;;;;;;;3.66;76.4668;968.4303;;;;
2020/01/13 06:22:44;;;;;;;21.3;18.4;;;;;;;3.76;75.35352;968.4224;;;;
2020/01/13 06:25:31;;;;;;;20.9;18.1;;;;;;;3.73;74.71387;968.3533;;;;
2020/01/13 06:27:54;;;;;;;21.8;18.6;;;;;;;3.78;74.7793;968.3903;;;;
2020/01/13 06:30:19;;;;;;;22.3;18.4;;;;;;;3.73;75.11816;968.334;;;;
2020/01/13 06:32:57;;;;;;;22.1;18.6;;;;;;;3.68;75.08594;968.3074;;;;
2020/01/13 06:35:14;;;;;;;18.8;16.8;;;;;;;3.72;74.72461;968.2988;;;;
2020/01/13 06:37:34;;;;;;;18.6;16.6;;;;;;;3.72;74.62012;968.1934;;;;
2020/01/13 06:40:00;;;;;;;20.5;17.8;;;;;;;3.62;75.44434;968.1702;;;;
2020/01/13 06:42:25;;;;;;;21.7;17.6;;;;;;;3.63;74.8457;968.2042;;;;
2020/01/13 06:44:50;;;;;;;19.4;17.2;;;;;;;3.69;74.68359;968.204;;;;
2020/01/13 06:47:18;;;;;;;19;17;;;;;;;3.66;74.56348;968.2083;;;;
2020/01/13 06:49:43;;;;;;;21.3;16.7;;;;;;;3.8;76.80371;968.224;;;;
2020/01/13 06:52:27;;;;;;;20.4;16.1;;;;;;;3.9;75.54004;968.2473;;;;
2020/01/13 06:54:31;;;;;;;20.4;17.4;;;;;;;3.9;74.69727;968.1766;;;;
2020/01/13 06:56:55;;;;;;;20.4;17.4;;;;;;;3.93;74.67871;968.1544;;;;
2020/01/13 06:59:20;;;;;;;19.7;17.2;;;;;;;3.89;74.67285;968.1092;;;;
2020/01/13 07:01:45;;;;;;;19.5;16.8;;;;;;;3.98;74.06543;968.0807;;;;
2020/01/13 07:06:36;;;;;;;18.1;16.2;;;;;;;4.02;72.99805;968.1497;;;;
2020/01/13 07:09:01;;;;;;;17.9;16;;;;;;;4.06;73.18945;968.1041;;;;
2020/01/13 07:11:26;;;;;;;17.8;15.2;;;;;;;4.03;72.37695;968.1694;;;;
2020/01/13 07:13:51;;;;;;;16.8;14.8;;;;;;;4.04;72.29688;968.1147;;;;
2020/01/13 07:16:16;;;;;;;17.6;15.7;;;;;;;3.88;72.98535;968.101;;;;
2020/01/13 07:18:41;;;;;;;17.3;15.2;;;;;;;3.85;73.38574;968.1128;;;;
2020/01/13 07:21:23;;;;;;;50.4;32.8;;;;;;;3.62;74.2793;968.0784;;;;
2020/01/13 07:23:34;;;;;;;34.2;24.2;;;;;;;3.57;74.0166;968.0974;;;;
2020/01/13 07:25:57;;;;;;;21.5;17.6;;;;;;;3.55;73.36719;968.0914;;;;
2020/01/13 07:28:21;;;;;;;16.8;15;;;;;;;3.61;72.96289;968.0963;;;;
2020/01/13 07:30:46;;;;;;;17;14.8;;;;;;;3.8;72.10645;968.1082;;;;
2020/01/13 07:33:11;;;;;;;15.9;13.5;;;;;;;3.99;71.10059;968.1731;;;;
2020/01/13 07:35:37;;;;;;;16.5;13.8;;;;;;;3.93;70.49023;968.1209;;;;
2020/01/13 07:38:02;;;;;;;16.3;13.1;;;;;;;3.91;70.31348;968.1024;;;;
2020/01/13 07:40:27;;;;;;;13.9;12.4;;;;;;;3.8;70.53711;968.1517;;;;
2020/01/13 07:42:52;;;;;;;15.2;13;;;;;;;3.94;70.59668;968.0812;;;;
2020/01/13 07:45:17;;;;;;;15.2;13.2;;;;;;;4.03;70.73828;968.0076;;;;
2020/01/13 07:47:42;;;;;;;16.7;12.8;;;;;;;3.94;70.99902;967.9703;;;;
2020/01/13 07:50:08;;;;;;;15.8;13;;;;;;;4.02;70.94434;967.9983;;;;
2020/01/13 07:52:33;;;;;;;16;14.3;;;;;;;4.1;71.35059;968.0054;;;;
2020/01/13 07:54:58;;;;;;;16;14.2;;;;;;;4.05;71.72266;968.0367;;;;
2020/01/13 07:57:23;;;;;;;18.5;13.9;;;;;;;4.11;70.95898;968.0366;;;;
2020/01/13 07:59:48;;;;;;;16.9;14.4;;;;;;;4.14;71.27637;968.0339;;;;
2020/01/13 08:02:13;;;;;;;16.4;13.8;;;;;;;4.03;71.5;967.9883;;;;
2020/01/13 08:04:38;;;;;;;14.4;12.5;;;;;;;4.15;70.86133;968.0095;;;;
2020/01/13 08:07:04;;;;;;;15.5;12.7;;;;;;;4.11;71.00488;968.0181;;;;
2020/01/13 08:09:29;;;;;;;17.8;12.4;;;;;;;4.22;70.93164;967.9709;;;;
2020/01/13 08:11:54;;;;;;;15.3;13.1;;;;;;;4.09;71.15234;967.9355;;;;
2020/01/13 08:14:19;;;;;;;15.1;12.1;;;;;;;3.91;70.99512;967.8544;;;;
2020/01/13 08:16:44;;;;;;;14.1;11.7;;;;;;;3.72;71.72363;967.8789;;;;
2020/01/13 08:19:09;;;;;;;11.9;10.6;;;;;;;3.78;70.2002;967.8979;;;;
2020/01/13 08:21:34;;;;;;;12.2;9.9;;;;;;;3.79;69.6123;967.9048;;;;
2020/01/13 08:23:59;;;;;;;10.8;9.4;;;;;;;3.75;70.20703;967.8401;;;;
2020/01/13 08:26:24;;;;;;;10.5;9.1;;;;;;;3.73;69.54688;967.9125;;;;
2020/01/13 08:28:50;;;;;;;11.8;8.4;;;;;;;3.68;69.92969;967.9067;;;;
2020/01/13 08:32:35;;;;;;;9.7;8.4;;;;;;;3.83;69.64258;967.8183;;;;
2020/01/13 08:34:54;;;;;;;13.7;8.6;;;;;;;3.74;68.19727;967.8508;;;;
2020/01/13 08:37:19;;;;;;;9;8;;;;;;;3.86;67.4668;967.8713;;;;
2020/01/13 08:39:44;;;;;;;11.4;7.7;;;;;;;3.88;66.65137;967.8248;;;;
2020/01/13 08:42:09;;;;;;;12.5;7.3;;;;;;;3.97;66.74609;967.851;;;;
2020/01/13 08:44:35;;;;;;;11.9;7.6;;;;;;;4.03;66.62695;967.8307;;;;
2020/01/13 08:47:00;;;;;;;9.6;7.2;;;;;;;3.91;65.81348;967.8078;;;;
2020/01/13 08:49:25;;;;;;;10.7;7.4;;;;;;;4.02;66.69531;967.7866;;;;
2020/01/13 08:51:50;;;;;;;9.3;7.2;;;;;;;3.95;66.45508;967.7791;;;;
2020/01/13 08:54:15;;;;;;;10.9;7.3;;;;;;;4.06;66.40234;967.769;;;;
2020/01/13 08:56:40;;;;;;;10.3;7.2;;;;;;;4.22;66.68164;967.7583;;;;
2020/01/13 08:59:05;;;;;;;9.8;6.6;;;;;;;4.23;65.55176;967.6805;;;;
2020/01/13 09:01:30;;;;;;;11;7.4;;;;;;;4.43;65.58008;967.6967;;;;
2020/01/13 09:03:55;;;;;;;10.6;7.5;;;;;;;4.44;66.30078;967.7381;;;;
2020/01/13 09:08:45;;;;;;;14.3;7.8;;;;;;;4.58;65.0498;967.6238;;;;
2020/01/13 09:11:10;;;;;;;9.3;7.2;;;;;;;4.42;65.40625;967.6029;;;;
2020/01/13 09:13:35;;;;;;;7.9;6.8;;;;;;;4.42;65.70703;967.644;;;;
2020/01/13 09:16:00;;;;;;;11.2;6.8;;;;;;;4.5;65.73047;967.6378;;;;
2020/01/13 09:18:25;;;;;;;8.3;7;;;;;;;4.62;65.14844;967.6594;;;;
2020/01/13 09:20:50;;;;;;;10.5;7.4;;;;;;;4.49;65.73926;967.6415;;;;
2020/01/13 09:23:15;;;;;;;12.8;7.2;;;;;;;4.48;66.41016;967.6337;;;;
2020/01/13 09:25:40;;;;;;;10.4;7;;;;;;;4.61;65.51758;967.5944;;;;
2020/01/13 09:28:06;;;;;;;9;6.6;;;;;;;4.78;64.24805;967.5837;;;;
2020/01/13 09:30:34;;;;;;;8.8;7.1;;;;;;;4.85;64.44531;967.5545;;;;
2020/01/13 09:33:16;;;;;;;12.2;7.2;;;;;;;4.77;64.13086;967.5598;;;;
2020/01/13 09:35:21;;;;;;;9.8;6.9;;;;;;;4.66;64.79688;967.5419;;;;
2020/01/13 09:37:46;;;;;;;8.8;6.9;;;;;;;4.7;65.55273;967.5181;;;;
2020/01/13 09:40:11;;;;;;;10.4;7.4;;;;;;;4.85;64.94043;967.553;;;;
2020/01/13 09:42:36;;;;;;;11;7.1;;;;;;;4.87;64.85059;967.5421;;;;
2020/01/13 09:45:01;;;;;;;8.7;7;;;;;;;4.96;64.69238;967.5659;;;;
2020/01/13 09:47:26;;;;;;;12.8;7.3;;;;;;;5.02;65.24414;967.6036;;;;
2020/01/13 09:49:52;;;;;;;10.3;6.7;;;;;;;5.04;64.62305;967.6371;;;;
2020/01/13 09:52:17;;;;;;;10.7;6.8;;;;;;;5.04;64.69238;967.5984;;;;
2020/01/13 09:54:42;;;;;;;8.7;6.7;;;;;;;5.06;65.05273;967.5577;;;;
2020/01/13 09:57:12;;;;;;;8.1;6.5;;;;;;;5.14;64.99707;967.5625;;;;
2020/01/13 09:59:32;;;;;;;7.7;6.4;;;;;;;5.14;64.60156;967.5226;;;;
2020/01/13 10:01:59;;;;;;;9.1;7.1;;;;;;;4.94;64.45703;967.4799;;;;
2020/01/13 10:04:22;;;;;;;7.8;5.9;;;;;;;4.95;64.08789;967.447;;;;
2020/01/13 10:06:47;;;;;;;8.3;6.5;;;;;;;5.17;64.23633;967.3947;;;;
2020/01/13 10:09:12;;;;;;;10.9;6.9;;;;;;;5.35;63.66211;967.4403;;;;
2020/01/13 10:11:37;;;;;;;7.7;6.5;;;;;;;5.29;62.85449;967.4231;;;;
2020/01/13 10:14:02;;;;;;;8.3;6.8;;;;;;;5.59;61.95996;967.2994;;;;
2020/01/13 10:16:27;;;;;;;8.6;6.8;;;;;;;5.88;61.36426;967.2697;;;;
2020/01/13 10:18:52;;;;;;;8.3;6.1;;;;;;;5.9;59.67383;967.2383;;;;
2020/01/13 10:21:18;;;;;;;7.5;6;;;;;;;6.09;58.28613;967.1619;;;;
2020/01/13 10:23:43;;;;;;;9.2;6.2;;;;;;;6.31;58.48926;967.1353;;;;
2020/01/13 10:26:08;;;;;;;11.4;6.8;;;;;;;6.54;58.47461;967.117;;;;
2020/01/13 10:28:33;;;;;;;11.5;6.9;;;;;;;6.53;57.39355;967.0383;;;;
2020/01/13 10:30:58;;;;;;;13.2;7.2;;;;;;;6.54;56.72168;967.012;;;;
2020/01/13 10:33:23;;;;;;;12.3;7.2;;;;;;;6.65;57.00293;967.0208;;;;
2020/01/13 10:35:48;;;;;;;12.7;7.5;;;;;;;6.68;56.97266;966.9324;;;;
2020/01/13 10:38:13;;;;;;;9.9;7.3;;;;;;;6.69;57.7168;966.8848;;;;
2020/01/13 10:40:38;;;;;;;10.4;7.2;;;;;;;6.68;56.8916;966.8451;;;;
2020/01/13 10:43:03;;;;;;;14.1;7.8;;;;;;;6.47;57.86133;966.8031;;;;
2020/01/13 10:45:28;;;;;;;12.8;8.7;;;;;;;6.59;58.45898;966.803;;;;
2020/01/13 10:47:54;;;;;;;32.9;21.1;;;;;;;6.87;58.80957;966.739;;;;
2020/01/13 10:50:19;;;;;;;20.1;11.6;;;;;;;6.78;59.07813;966.6925;;;;
2020/01/13 10:52:44;;;;;;;39.7;21.9;;;;;;;6.73;58.44336;966.6606;;;;
2020/01/13 10:55:09;;;;;;;25.7;15.2;;;;;;;6.77;58.82129;966.6088;;;;
2020/01/13 10:57:34;;;;;;;17.9;8.6;;;;;;;6.82;58.07031;966.6312;;;;
2020/01/13 10:59:59;;;;;;;13.4;7.4;;;;;;;6.9;56.25781;966.5531;;;;
2020/01/13 11:02:24;;;;;;;9.9;6.4;;;;;;;6.82;55.14355;966.5105;;;;
2020/01/13 11:04:49;;;;;;;11.4;6;;;;;;;6.76;54.83398;966.5054;;;;
2020/01/13 11:07:15;;;;;;;11.1;6.1;;;;;;;6.57;55.76074;966.4576;;;;
2020/01/13 11:09:40;;;;;;;8.7;6;;;;;;;6.37;56.47852;966.4529;;;;
2020/01/13 11:12:05;;;;;;;8.7;5.7;;;;;;;6.37;56.57129;966.4109;;;;
2020/01/13 11:14:30;;;;;;;11.2;5.7;;;;;;;6.42;56.17285;966.41;;;;
2020/01/13 11:16:55;;;;;;;12.5;6.1;;;;;;;6.54;56.52441;966.4153;;;;
2020/01/13 11:19:26;;;;;;;10;5.6;;;;;;;6.71;55.87402;966.3173;;;;
2020/01/13 11:21:45;;;;;;;10.6;5.4;;;;;;;6.89;54.76953;966.2525;;;;
2020/01/13 11:24:11;;;;;;;8.5;5.5;;;;;;;7.02;53.51758;966.2225;;;;
2020/01/13 11:26:46;;;;;;;10.8;5.5;;;;;;;7.09;53.64258;966.2134;;;;
2020/01/13 11:29:01;;;;;;;7.3;4.8;;;;;;;7.21;53.25293;966.15;;;;
2020/01/13 11:31:26;;;;;;;9.3;4.7;;;;;;;7.36;53.29395;966.127;;;;
2020/01/13 11:33:51;;;;;;;7.1;4.5;;;;;;;7.24;52.5;966.0759;;;;
2020/01/13 11:36:16;;;;;;;8.7;4.2;;;;;;;7.33;51.08008;966.0555;;;;
2020/01/13 11:38:42;;;;;;;7.9;4;;;;;;;7.39;50.33008;966.0334;;;;
2020/01/13 11:41:07;;;;;;;5.7;3.8;;;;;;;7.37;51.03711;966.0114;;;;
2020/01/13 11:43:32;;;;;;;4.7;3.6;;;;;;;7.36;49.4082;965.9976;;;;
2020/01/13 11:45:57;;;;;;;5.9;3.4;;;;;;;7.41;48.4375;965.918;;;;
2020/01/13 11:48:22;;;;;;;4.3;3.1;;;;;;;7.06;47.76855;965.8624;;;;
2020/01/13 11:50:47;;;;;;;6.8;3.1;;;;;;;6.99;48.55176;965.795;;;;
2020/01/13 11:53:12;;;;;;;5.9;3.4;;;;;;;7.03;48.99805;965.7438;;;;
2020/01/13 11:55:37;;;;;;;4.4;3.1;;;;;;;7.07;48.81543;965.7662;;;;
2020/01/13 11:58:03;;;;;;;7.4;3.5;;;;;;;7.36;49.24609;965.7775;;;;
2020/01/13 12:00:28;;;;;;;7;3.4;;;;;;;7.64;48.95117;965.7578;;;;
2020/01/13 12:02:53;;;;;;;4.6;3.4;;;;;;;7.42;49.70508;965.7324;;;;
2020/01/13 12:05:18;;;;;;;7.3;3.3;;;;;;;7.6;48.80762;965.6594;;;;
2020/01/13 12:07:43;;;;;;;4.6;3.2;;;;;;;7.57;48.51172;965.6094;;;;
2020/01/13 12:10:08;;;;;;;5.5;3.1;;;;;;;7.55;48.80176;965.5492;;;;
2020/01/13 12:12:33;;;;;;;6.5;3.3;;;;;;;7.69;48.80566;965.5069;;;;
2020/01/13 12:14:59;;;;;;;6.6;3.1;;;;;;;7.74;48.87012;965.4441;;;;
2020/01/13 12:17:24;;;;;;;4;3;;;;;;;7.83;48.0293;965.3872;;;;
2020/01/13 12:19:49;;;;;;;4.3;3.2;;;;;;;7.9;48.56152;965.4297;;;;
2020/01/13 12:22:14;;;;;;;4.7;3.3;;;;;;;7.69;49.36426;965.3896;;;;
2020/01/13 12:24:39;;;;;;;6.6;4.4;;;;;;;7.63;49.97363;965.3507;;;;
2020/01/13 12:29:29;;;;;;;4.4;3.2;;;;;;;7.77;49.15234;965.3062;;;;
2020/01/13 12:31:55;;;;;;;5;3.5;;;;;;;7.95;49.52246;965.296;;;;
2020/01/13 12:34:20;;;;;;;7.4;3.2;;;;;;;7.92;49.4248;965.2508;;;;
2020/01/13 12:36:45;;;;;;;5.3;3.6;;;;;;;8;50.30859;965.2449;;;;
2020/01/13 12:39:11;;;;;;;6;3.4;;;;;;;8.08;49.68848;965.1933;;;;
2020/01/13 12:41:49;;;;;;;5.4;3.1;;;;;;;8.02;49.76367;965.1561;;;;
2020/01/13 12:44:46;;;;;;;7;3.4;;;;;;;7.93;49.33398;965.1127;;;;
2020/01/13 12:46:26;;;;;;;5.6;3.6;;;;;;;8.06;48.75488;965.1387;;;;
2020/01/13 12:48:51;;;;;;;5.7;3.2;;;;;;;7.93;48.45996;965.1409;;;;
2020/01/13 12:51:16;;;;;;;4.5;3.2;;;;;;;7.75;47.21777;965.1361;;;;
2020/01/13 12:53:41;;;;;;;4.8;3.1;;;;;;;7.64;48.75293;965.1459;;;;
2020/01/13 12:56:06;;;;;;;6;3.3;;;;;;;7.64;49.73145;965.0502;;;;
2020/01/13 12:58:31;;;;;;;5.8;3.4;;;;;;;7.76;49.15039;965.0054;;;;
2020/01/13 13:00:57;;;;;;;4;3.2;;;;;;;7.77;49.11719;964.9619;;;;
2020/01/13 13:03:22;;;;;;;6;3.2;;;;;;;7.79;49.5498;964.9642;;;;
2020/01/13 13:05:47;;;;;;;6.4;3.6;;;;;;;7.76;49.41797;964.9412;;;;
2020/01/13 13:08:12;;;;;;;4.6;3.3;;;;;;;7.7;49.71484;964.9324;;;;
2020/01/13 13:10:37;;;;;;;4.6;3.2;;;;;;;7.71;49.80859;964.9089;;;;
2020/01/13 13:13:02;;;;;;;5.4;3.5;;;;;;;7.74;50.25488;964.911;;;;
2020/01/13 13:15:27;;;;;;;5.7;3.4;;;;;;;7.81;50.01855;964.9575;;;;
2020/01/13 13:17:52;;;;;;;7.3;3.4;;;;;;;7.82;50.27539;964.9811;;;;
2020/01/13 13:20:17;;;;;;;6.7;3.7;;;;;;;7.82;50.41504;964.9228;;;;
2020/01/13 13:22:43;;;;;;;6.4;3.6;;;;;;;7.96;50.52441;964.8599;;;;
2020/01/13 13:25:12;;;;;;;6.4;3.8;;;;;;;8.05;50.82715;964.7802;;;;
2020/01/13 13:27:32;;;;;;;5.9;3.6;;;;;;;8.11;50.14648;964.7789;;;;
2020/01/13 13:29:58;;;;;;;6.6;3.8;;;;;;;8.05;51.02441;964.8137;;;;
2020/01/13 13:34:48;;;;;;;6.9;3.4;;;;;;;8.1;50.62305;964.7188;;;;
2020/01/13 13:37:13;;;;;;;6.6;3.3;;;;;;;8.16;51.31836;964.673;;;;
2020/01/13 13:39:38;;;;;;;5.2;3.9;;;;;;;8.08;51.14551;964.6389;;;;
2020/01/13 13:42:03;;;;;;;10.9;3.9;;;;;;;8.04;50.81348;964.6556;;;;
2020/01/13 13:44:28;;;;;;;7;3.5;;;;;;;8.16;50.97949;964.6149;;;;
2020/01/13 13:46:53;;;;;;;6.6;4.2;;;;;;;8.26;50.75977;964.625;;;;
2020/01/13 13:49:18;;;;;;;4.9;3.4;;;;;;;8.36;50.31445;964.5525;;;;
2020/01/13 13:51:43;;;;;;;7.2;3.6;;;;;;;8.35;49.98828;964.5722;;;;
2020/01/13 13:54:09;;;;;;;7.9;3.6;;;;;;;8.3;50.0293;964.6166;;;;
2020/01/13 13:56:34;;;;;;;4.5;3.5;;;;;;;8.14;49.42676;964.5789;;;;
2020/01/13 13:58:59;;;;;;;8.4;3.6;;;;;;;8.26;49.59375;964.53;;;;
2020/01/13 14:01:24;;;;;;;7.3;3.7;;;;;;;8.26;49.89648;964.5414;;;;
2020/01/13 14:03:49;;;;;;;4.5;3.1;;;;;;;8.35;49.69727;964.5887;;;;
2020/01/13 14:06:15;;;;;;;5;3;;;;;;;8.24;48.50684;964.5689;;;;
2020/01/13 14:08:40;;;;;;;6.6;3.1;;;;;;;8.27;48.71875;964.5616;;;;
2020/01/13 14:11:05;;;;;;;5.7;3;;;;;;;8.24;48.17969;964.5555;;;;
2020/01/13 14:13:30;;;;;;;5.5;3.2;;;;;;;8.25;47.67969;964.5273;;;;
2020/01/13 14:15:55;;;;;;;6.4;3.3;;;;;;;8.31;48.1875;964.5502;;;;
2020/01/13 14:18:20;;;;;;;6.3;3.2;;;;;;;8.28;47.83496;964.5223;;;;
2020/01/13 14:20:45;;;;;;;4.9;3.4;;;;;;;8.08;48.40723;964.488;;;;
2020/01/13 14:23:11;;;;;;;5;3.4;;;;;;;8.09;48.58203;964.4583;;;;
2020/01/13 14:25:36;;;;;;;5.3;3.2;;;;;;;8.02;48.41113;964.3948;;;;
2020/01/13 14:28:01;;;;;;;7.3;3.2;;;;;;;8.07;48.60254;964.3607;;;;
2020/01/13 14:30:26;;;;;;;4.9;3.1;;;;;;;8.24;48.75195;964.3575;;;;
2020/01/13 14:32:51;;;;;;;4.6;3;;;;;;;8.22;48.57422;964.3273;;;;
2020/01/13 14:37:26;;;;;;;8.3;3.3;;;;;;;8.12;48.42383;964.3533;;;;
2020/01/13 14:39:51;;;;;;;6.7;3.4;;;;;;;8.26;48.41504;964.3699;;;;